Time;durP1;ratioP1;P1;durP2;ratioP2;P2;SDS_P1;SDS_P2;PMS_P1;PMS_P2;Temp;Humidity;BMP_temperature;BMP_pressure;BME280_temperature;BME280_humidity;BME280_pressure;Samples;Min_cycle;Max_cycle;Signal;HPM_P1;HPM_P2
2023/06/27 00:00:27;;;;;;;10.82;9.75;;;22.00;99.90;;;;;;4845092;29;20050;-92
2023/06/27 00:03:08;;;;;;;9.80;8.98;;;22.00;99.90;;;;;;4826596;29;20061;-92
2023/06/27 00:05:51;;;;;;;10.82;9.73;;;21.90;99.90;;;;;;4826816;29;20038;-94
2023/06/27 00:08:32;;;;;;;15.02;9.75;;;21.90;99.90;;;;;;4827012;29;20042;-92
2023/06/27 00:11:04;;;;;;;13.32;9.00;;;21.90;99.90;;;;;;4826401;29;20046;-92
2023/06/27 00:16:45;;;;;;;10.35;9.25;;;21.90;99.90;;;;;;4845069;29;20046;-92
2023/06/27 00:19:30;;;;;;;9.73;8.77;;;21.80;99.90;;;;;;4845150;29;20042;-92
2023/06/27 00:22:04;;;;;;;9.80;8.27;;;21.80;99.90;;;;;;4860325;29;20082;-91
2023/06/27 00:25:05;;;;;;;9.60;8.60;;;21.70;99.90;;;;;;4847548;29;20042;-92
2023/06/27 00:30:52;;;;;;;10.30;8.88;;;21.60;99.90;;;;;;4815469;29;20042;-92
2023/06/27 00:33:48;;;;;;;11.40;8.23;;;21.60;99.90;;;;;;4830942;29;20038;-93
2023/06/27 00:36:29;;;;;;;9.05;7.97;;;21.60;99.90;;;;;;4823464;29;20038;-93
2023/06/27 00:39:20;;;;;;;9.05;8.15;;;21.60;99.90;;;;;;4829308;29;20034;-92
2023/06/27 00:42:20;;;;;;;11.95;7.97;;;21.60;99.90;;;;;;4843387;29;20504;-92
2023/06/27 00:44:56;;;;;;;9.57;7.50;;;21.70;99.90;;;;;;4843668;29;20046;-90
2023/06/27 00:47:45;;;;;;;9.05;8.18;;;21.60;99.90;;;;;;4817879;29;20607;-93
2023/06/27 00:50:30;;;;;;;8.18;7.40;;;21.60;99.90;;;;;;4840839;29;20038;-92
2023/06/27 00:53:06;;;;;;;9.68;7.93;;;21.60;99.90;;;;;;4829206;29;20034;-91
2023/06/27 00:55:39;;;;;;;15.48;7.95;;;21.50;99.90;;;;;;4827840;29;20037;-92
2023/06/27 00:58:10;;;;;;;12.82;7.43;;;21.40;99.90;;;;;;4828723;29;20037;-92
2023/06/27 01:00:51;;;;;;;14.13;6.93;;;21.30;99.90;;;;;;4829372;29;20397;-92
2023/06/27 01:03:24;;;;;;;12.60;7.65;;;21.30;99.90;;;;;;4829438;29;20114;-91
2023/06/27 01:06:03;;;;;;;10.20;6.45;;;21.20;99.90;;;;;;4829199;29;20062;-91
2023/06/27 01:09:28;;;;;;;18.10;6.68;;;21.20;99.90;;;;;;4859181;29;20519;-93
2023/06/27 01:12:09;;;;;;;7.20;6.57;;;21.20;99.90;;;;;;4858298;29;20030;-91
2023/06/27 01:14:58;;;;;;;10.90;6.78;;;21.10;99.90;;;;;;4847141;29;20041;-91
2023/06/27 01:17:28;;;;;;;7.95;6.88;;;21.10;99.90;;;;;;4848257;29;20173;-91
2023/06/27 01:19:56;;;;;;;11.35;6.47;;;21.10;99.90;;;;;;4846945;29;20048;-91
2023/06/27 01:22:50;;;;;;;7.10;6.47;;;21.10;99.90;;;;;;4846978;29;20136;-92
2023/06/27 01:25:27;;;;;;;9.45;7.07;;;21.10;99.90;;;;;;4847076;29;20030;-92
2023/06/27 01:27:56;;;;;;;9.50;6.93;;;21.10;99.90;;;;;;4856238;29;20041;-92
2023/06/27 01:30:44;;;;;;;13.10;7.05;;;21.10;99.90;;;;;;4849635;29;20037;-93
2023/06/27 01:34:09;;;;;;;;;;;;;;;;;;;;;
2023/06/27 01:37:06;;;;;;;6.82;6.22;;;21.10;99.90;;;;;;4825409;29;20041;-91
2023/06/27 01:40:23;;;;;;;6.68;6.13;;;21.10;99.90;;;;;;4825523;29;20095;-92
2023/06/27 01:43:34;;;;;;;12.05;6.35;;;21.10;99.90;;;;;;4820909;29;20057;-92
2023/06/27 01:46:27;;;;;;;7.35;6.65;;;21.10;99.90;;;;;;4788869;29;20053;-91
2023/06/27 01:49:25;;;;;;;9.18;6.45;;;21.10;99.90;;;;;;4795679;29;20041;-93
2023/06/27 01:52:15;;;;;;;;;;;;;;;;;;;;;
2023/06/27 01:54:59;;;;;;;10.63;6.70;;;21.20;99.90;;;;;;4824738;29;20551;-93
2023/06/27 02:01:05;;;;;;;11.38;7.35;;;21.10;99.90;;;;;;4823812;29;20128;-92
2023/06/27 02:04:03;;;;;;;7.70;6.50;;;21.00;99.90;;;;;;4827935;29;20041;-94
2023/06/27 02:06:47;;;;;;;9.05;6.55;;;21.00;99.90;;;;;;4842181;29;20047;-93
2023/06/27 02:12:59;;;;;;;8.55;6.80;;;20.90;99.90;;;;;;4788612;30;20660;-93
2023/06/27 02:16:28;;;;;;;7.90;7.10;;;20.90;99.90;;;;;;4775464;30;20070;-93
2023/06/27 02:19:37;;;;;;;7.35;6.65;;;20.90;99.90;;;;;;4734697;30;20660;-91
2023/06/27 02:22:30;;;;;;;7.10;6.38;;;20.90;99.90;;;;;;4728548;30;20055;-94
2023/06/27 02:25:44;;;;;;;9.93;7.50;;;20.90;99.90;;;;;;4737824;30;20511;-93
2023/06/27 02:28:16;;;;;;;7.68;7.03;;;20.90;99.90;;;;;;4767260;30;20550;-94
2023/06/27 02:31:08;;;;;;;9.10;7.13;;;20.80;99.90;;;;;;4739334;30;20048;-92
2023/06/27 02:34:01;;;;;;;7.93;7.00;;;20.80;99.90;;;;;;4756275;30;20039;-92
2023/06/27 02:36:41;;;;;;;8.60;6.57;;;20.70;99.90;;;;;;4771592;30;20036;-92
2023/06/27 02:42:54;;;;;;;7.15;6.45;;;20.70;99.90;;;;;;4787840;30;20057;-92
2023/06/27 02:45:57;;;;;;;6.75;6.25;;;20.60;99.90;;;;;;4788463;30;20035;-94
2023/06/27 02:48:37;;;;;;;7.22;6.57;;;20.60;99.90;;;;;;4765276;29;20047;-93
2023/06/27 02:51:55;;;;;;;6.43;5.82;;;20.60;99.90;;;;;;4806619;29;20062;-91
2023/06/27 02:54:42;;;;;;;8.73;6.80;;;20.60;99.90;;;;;;4809382;29;20042;-93
2023/06/27 02:57:45;;;;;;;7.93;6.43;;;20.70;99.90;;;;;;4879348;29;20036;-91
2023/06/27 03:00:37;;;;;;;8.15;6.85;;;20.70;99.90;;;;;;4878467;29;20110;-91
2023/06/27 03:06:13;;;;;;;7.03;6.43;;;20.70;99.90;;;;;;4863848;29;20045;-94
2023/06/27 03:08:45;;;;;;;7.70;6.80;;;20.70;99.90;;;;;;4849071;29;20037;-92
2023/06/27 03:11:42;;;;;;;;;;;;;;;;;;;;;
2023/06/27 03:14:19;;;;;;;7.28;6.57;;;20.70;99.90;;;;;;4860826;29;20033;-94
2023/06/27 03:17:15;;;;;;;7.43;6.82;;;20.80;99.90;;;;;;4845902;29;20073;-92
2023/06/27 03:19:59;;;;;;;7.75;6.43;;;20.70;99.90;;;;;;4847704;29;20069;-94
2023/06/27 07:03:16;;;;;;;22.95;21.02;;;31.70;99.90;;;;;;759421;23;20364;-93
2023/06/27 07:05:43;;;;;;;23.20;21.40;;;32.10;99.90;;;;;;4862859;29;20403;-92
2023/06/27 07:08:09;;;;;;;22.75;21.02;;;31.90;99.90;;;;;;4879606;29;20044;-94
2023/06/27 07:10:36;;;;;;;22.70;21.08;;;31.60;99.90;;;;;;4879382;29;20071;-92
2023/06/27 07:27:25;;;;;;;21.83;20.42;;;32.50;99.90;;;;;;5694712;23;20048;-92
2023/06/27 09:29:19;;;;;;;23.88;21.83;;;31.40;99.90;;;;;;3920084;23;20137;-89
2023/06/27 09:31:46;;;;;;;23.88;21.70;;;31.60;99.90;;;;;;4882145;29;20472;-91
2023/06/27 09:34:21;;;;;;;23.67;21.92;;;31.50;99.90;;;;;;4884964;29;20365;-92
2023/06/27 09:38:04;;;;;;;;;;;;;;;;;;;;;
2023/06/27 09:44:23;;;;;;;24.02;22.15;;;31.50;99.90;;;;;;5195987;23;20091;-93
2023/06/27 09:56:17;;;;;;;;;;;;;;;;;;;;;
2023/06/27 09:58:57;;;;;;;23.30;20.92;;;31.00;99.90;;;;;;4886381;29;20037;-93
2023/06/27 10:02:01;;;;;;;21.92;19.98;;;31.00;99.90;;;;;;4873981;29;20108;-95
2023/06/27 10:05:04;;;;;;;23.40;21.03;;;31.10;99.90;;;;;;4874839;29;20032;-94
2023/06/27 10:07:34;;;;;;;22.80;20.90;;;31.10;99.90;;;;;;4885070;29;20085;-93
2023/06/27 10:10:01;;;;;;;22.65;20.45;;;31.10;99.90;;;;;;4868227;29;20060;-93
2023/06/27 10:12:31;;;;;;;23.08;21.08;;;31.00;99.90;;;;;;4869476;29;20020;-95
2023/06/27 10:15:22;;;;;;;22.25;20.23;;;30.80;99.90;;;;;;4888001;29;20044;-94
2023/06/27 10:17:49;;;;;;;22.45;20.58;;;31.00;99.90;;;;;;4868574;29;20032;-93
2023/06/27 10:20:17;;;;;;;23.00;20.98;;;30.90;99.90;;;;;;4868278;29;20039;-94
2023/06/27 10:22:45;;;;;;;22.45;20.70;;;31.00;99.90;;;;;;4883282;29;20044;-93
2023/06/27 10:25:12;;;;;;;23.02;20.92;;;31.20;99.90;;;;;;4867835;29;20033;-93
2023/06/27 10:27:42;;;;;;;22.90;21.25;;;30.80;99.90;;;;;;4883334;29;20085;-92
2023/06/27 10:30:18;;;;;;;22.35;20.55;;;30.60;99.90;;;;;;4867885;29;20040;-96
2023/06/27 10:32:44;;;;;;;21.65;19.98;;;30.70;99.90;;;;;;4867913;29;20029;-93
2023/06/27 10:35:25;;;;;;;22.83;20.95;;;30.90;99.90;;;;;;4868009;29;20100;-95
2023/06/27 10:38:08;;;;;;;23.38;21.30;;;30.90;99.90;;;;;;4884269;29;20033;-93
2023/06/27 10:40:59;;;;;;;23.75;21.70;;;30.60;99.90;;;;;;4867921;29;20032;-94
2023/06/27 10:43:48;;;;;;;23.20;21.40;;;30.60;99.90;;;;;;4867728;29;20520;-94
2023/06/27 10:46:27;;;;;;;23.38;21.50;;;30.60;99.90;;;;;;4883087;29;20390;-93
2023/06/27 10:49:04;;;;;;;22.48;20.70;;;30.80;99.90;;;;;;4868455;29;20032;-95
2023/06/27 11:12:19;;;;;;;23.33;21.50;;;31.60;99.90;;;;;;4906177;29;20048;-92
2023/06/27 11:14:46;;;;;;;22.38;20.77;;;31.40;99.90;;;;;;4852176;29;20044;-92
2023/06/27 11:17:18;;;;;;;22.05;20.38;;;31.40;99.90;;;;;;4879357;29;20024;-92
2023/06/27 11:19:47;;;;;;;26.05;21.00;;;31.40;99.90;;;;;;4874392;29;20029;-92
2023/06/27 11:22:14;;;;;;;23.83;21.73;;;31.50;99.90;;;;;;4873835;29;20053;-91
2023/06/27 11:45:25;;;;;;;26.08;23.85;;;30.80;99.90;;;;;;4920388;28;20132;-92
2023/06/27 11:51:12;;;;;;;24.60;22.60;;;30.90;99.90;;;;;;4952215;23;20056;-92
2023/06/27 11:54:08;;;;;;;;;;;;;;;;;;;;;
2023/06/27 11:58:16;;;;;;;24.73;23.02;;;31.40;99.90;;;;;;4817024;29;20107;-93
2023/06/27 12:01:36;;;;;;;;;;;;;;;;;;;;;
2023/06/27 12:04:50;;;;;;;24.83;23.23;;;30.90;99.90;;;;;;4871408;24;20056;-93
2023/06/27 12:23:16;;;;;;;24.73;23.13;;;31.30;99.90;;;;;;5147987;23;20068;-93
2023/06/27 12:36:32;;;;;;;25.23;23.48;;;30.90;99.90;;;;;;4963160;23;20072;-92
2023/06/27 12:38:59;;;;;;;25.08;22.85;;;30.70;99.90;;;;;;4923701;29;20032;-92
2023/06/27 12:41:28;;;;;;;25.70;23.52;;;30.70;99.90;;;;;;4922959;29;20144;-91
2023/06/27 12:43:58;;;;;;;24.40;22.58;;;30.80;99.90;;;;;;4923088;29;20042;-93
2023/06/27 12:46:24;;;;;;;25.17;23.52;;;31.20;99.90;;;;;;4908888;29;20033;-93
2023/06/27 12:48:56;;;;;;;24.95;23.25;;;31.20;99.90;;;;;;4981210;23;20080;-92
2023/06/27 12:51:23;;;;;;;24.98;23.27;;;31.10;99.90;;;;;;4866952;29;20033;-91
2023/06/27 12:53:49;;;;;;;25.67;23.88;;;31.00;99.90;;;;;;4866408;29;20053;-91
2023/06/27 12:56:17;;;;;;;25.30;23.70;;;31.00;99.90;;;;;;4866197;29;20036;-92
2023/06/27 14:52:46;;;;;;;24.67;22.98;;;30.80;99.90;;;;;;2208963;23;20336;-88
2023/06/27 14:55:12;;;;;;;24.80;23.20;;;30.80;99.90;;;;;;4882283;29;20048;-91
2023/06/27 14:57:39;;;;;;;25.13;23.52;;;30.70;99.90;;;;;;4882941;29;20033;-93
2023/06/27 15:00:07;;;;;;;24.92;23.33;;;30.60;99.90;;;;;;4888582;29;20024;-92
2023/06/27 15:02:33;;;;;;;24.85;23.35;;;30.60;99.90;;;;;;4897071;29;20032;-93
2023/06/27 15:05:07;;;;;;;25.50;23.80;;;30.50;99.90;;;;;;4905719;29;20060;-94
2023/06/27 15:07:33;;;;;;;24.73;23.10;;;30.50;99.90;;;;;;4892609;29;20040;-91
2023/06/27 15:10:00;;;;;;;25.10;23.35;;;30.60;99.90;;;;;;4886474;29;20051;-92
2023/06/27 15:12:26;;;;;;;24.98;23.20;;;30.50;99.90;;;;;;4886723;29;20035;-93
2023/06/27 15:14:55;;;;;;;24.95;23.27;;;30.60;99.90;;;;;;4890158;29;20398;-93
2023/06/27 15:17:24;;;;;;;24.23;22.92;;;30.80;99.90;;;;;;4889791;29;20052;-91
2023/06/27 15:19:53;;;;;;;24.48;22.92;;;30.70;99.90;;;;;;4889580;29;20024;-92
2023/06/27 15:22:26;;;;;;;24.42;22.92;;;30.50;99.90;;;;;;4889793;29;20044;-94
2023/06/27 15:24:54;;;;;;;26.03;24.00;;;30.50;99.90;;;;;;4889761;29;20115;-92
2023/06/27 15:27:21;;;;;;;25.05;23.20;;;30.60;99.90;;;;;;4889630;29;20569;-92
2023/06/27 15:29:48;;;;;;;24.27;22.83;;;30.30;99.90;;;;;;4889269;29;20032;-91
2023/06/27 15:32:15;;;;;;;25.00;23.30;;;30.40;99.90;;;;;;4889740;29;20035;-92
2023/06/27 15:34:44;;;;;;;24.85;23.20;;;30.60;99.90;;;;;;4889626;29;20028;-92
2023/06/27 15:37:11;;;;;;;25.08;23.48;;;30.30;99.90;;;;;;4889643;29;20032;-94
2023/06/27 15:39:37;;;;;;;24.77;23.17;;;30.10;99.90;;;;;;4883308;29;20036;-92
2023/06/27 15:42:05;;;;;;;25.20;23.52;;;30.10;99.90;;;;;;4867544;29;20387;-93
2023/06/27 15:44:33;;;;;;;25.27;23.67;;;30.10;99.90;;;;;;4899501;29;20025;-92
2023/06/27 15:47:01;;;;;;;24.70;23.13;;;30.10;99.90;;;;;;4899036;29;20033;-93
2023/06/27 15:49:27;;;;;;;24.58;23.08;;;30.00;99.90;;;;;;4899383;29;20043;-93
2023/06/27 15:51:54;;;;;;;25.42;23.73;;;29.90;99.90;;;;;;4883326;29;20033;-95
2023/06/27 15:54:20;;;;;;;25.90;24.10;;;29.90;99.90;;;;;;4898624;29;20057;-92
2023/06/27 15:56:47;;;;;;;26.00;23.85;;;29.80;99.90;;;;;;4883659;29;20056;-94
2023/06/27 15:59:15;;;;;;;26.05;23.98;;;29.80;99.90;;;;;;4885547;29;20083;-93
2023/06/27 16:01:43;;;;;;;25.38;23.48;;;29.90;99.90;;;;;;4870840;29;20128;-93
2023/06/27 16:04:10;;;;;;;24.92;23.23;;;29.80;99.90;;;;;;4886093;29;20045;-94
2023/06/27 16:06:37;;;;;;;25.83;24.10;;;29.70;99.90;;;;;;4870774;29;20084;-93
2023/06/27 16:09:07;;;;;;;25.40;23.90;;;29.70;99.90;;;;;;4886460;29;20033;-93
2023/06/27 16:11:34;;;;;;;25.10;23.50;;;29.80;99.90;;;;;;4870677;29;20033;-94
2023/06/27 16:14:00;;;;;;;25.65;23.50;;;29.90;99.90;;;;;;4870690;29;20021;-92
2023/06/27 16:16:33;;;;;;;25.73;24.02;;;29.70;99.90;;;;;;4870546;29;20041;-95
2023/06/27 16:19:00;;;;;;;25.27;23.60;;;29.70;99.90;;;;;;4885774;29;20028;-93
2023/06/27 16:21:27;;;;;;;25.00;23.40;;;29.70;99.90;;;;;;4870559;29;20470;-93
2023/06/27 16:23:56;;;;;;;24.50;23.00;;;29.70;99.90;;;;;;4870650;29;20047;-93
2023/06/27 16:26:28;;;;;;;24.75;22.95;;;29.60;99.90;;;;;;4876016;29;20062;-93
2023/06/27 16:29:01;;;;;;;24.65;23.15;;;29.50;99.90;;;;;;4892427;29;20144;-92
2023/06/27 16:31:37;;;;;;;24.20;22.67;;;29.40;99.90;;;;;;4850446;29;20484;-95
2023/06/27 16:34:03;;;;;;;24.48;22.88;;;29.10;99.90;;;;;;4835264;29;20045;-95
2023/06/27 16:36:32;;;;;;;24.70;23.15;;;29.00;99.90;;;;;;4866117;29;20033;-95
2023/06/27 16:39:00;;;;;;;24.00;22.50;;;28.90;99.90;;;;;;4835567;29;20034;-93
2023/06/27 16:41:30;;;;;;;23.35;21.88;;;29.00;99.90;;;;;;4884925;29;20037;-94
2023/06/27 16:43:57;;;;;;;23.90;22.50;;;29.00;99.90;;;;;;4853065;29;20116;-92
2023/06/27 16:46:26;;;;;;;24.55;23.00;;;29.00;99.90;;;;;;4853281;29;20081;-94
2023/06/27 16:49:01;;;;;;;24.63;23.02;;;28.80;99.90;;;;;;4853997;29;20037;-95
2023/06/27 16:51:27;;;;;;;24.40;22.90;;;28.80;99.90;;;;;;4852288;29;20064;-94
2023/06/27 16:53:57;;;;;;;24.55;22.90;;;28.70;99.90;;;;;;4869119;29;20136;-94
2023/06/27 16:56:27;;;;;;;24.35;22.77;;;28.70;99.90;;;;;;4883800;29;20041;-94
2023/06/27 16:58:59;;;;;;;24.10;22.60;;;28.60;99.90;;;;;;4868856;29;20037;-94
2023/06/27 17:01:54;;;;;;;24.05;22.45;;;28.60;99.90;;;;;;4875705;29;20033;-95
2023/06/27 17:04:22;;;;;;;24.50;23.00;;;28.50;99.90;;;;;;5334641;23;20933;-92
2023/06/27 17:10:47;;;;;;;24.50;23.00;;;28.30;99.90;;;;;;4865262;29;20124;-94
2023/06/27 17:13:29;;;;;;;;;;;;;;;;;;;;;
2023/06/27 17:19:05;;;;;;;24.65;22.85;;;28.30;99.90;;;;;;5125758;23;20055;-93
2023/06/27 17:21:41;;;;;;;24.90;23.02;;;28.20;99.90;;;;;;4926337;29;20477;-94
2023/06/27 17:24:45;;;;;;;25.45;23.02;;;28.20;99.90;;;;;;4925804;29;20035;-94
2023/06/27 17:37:35;;;;;;;24.33;22.83;;;28.00;99.90;;;;;;5433119;23;20082;-92
2023/06/27 18:05:30;;;;;;;24.17;22.60;;;27.20;99.90;;;;;;5017400;23;20070;-94
2023/06/27 18:07:57;;;;;;;23.95;22.30;;;27.20;99.90;;;;;;4926276;29;20063;-93
2023/06/27 18:19:04;;;;;;;;;;;;;;;;;;;;;
2023/06/27 18:27:15;;;;;;;;;;;;;;;;;;;;;
2023/06/27 18:41:46;;;;;;;;;;;;;;;;;;;;;
2023/06/27 18:49:01;;;;;;;22.85;21.08;;;25.90;99.90;;;;;;6140699;23;20017;-93
2023/06/27 19:03:05;;;;;;;21.73;19.55;;;25.10;99.90;;;;;;6078221;23;20567;-95
2023/06/27 21:58:39;;;;;;;19.85;18.40;;;22.90;99.90;;;;;;6069597;23;20109;-93
2023/06/27 23:21:08;;;;;;;22.00;20.10;;;21.10;99.90;;;;;;6251103;22;20446;-93
2023/06/27 23:23:37;;;;;;;22.92;21.02;;;21.00;99.90;;;;;;6199437;23;20004;-92
2023/06/27 23:26:16;;;;;;;21.90;20.20;;;21.00;99.90;;;;;;6198535;23;20011;-91
